Terminal Aerodrome Forecast
Issued by NWS

Home | Current Version | Previous Version | Text Only | Print | Product List | Glossary Off
Versions: 1 2 3 4 5 6 7 8 9 10 11 12 13 14

000
FTUS43 KUNR 211100
TAFGCC
TAF
KGCC 211134Z 2112/2212 22015KT P6SM BKN100
     FM211900 27014KT P6SM BKN040
     FM220200 30020G30KT P6SM BKN040
     FM220900 30025G35KT P6SM BKN030=

USA.gov is the U.S. government's official web portal to all federal, state and local government web resources and services.